Weather at Qimei Airport

Public forecast

Using degrees Celsius for public forecast. Weather courtesy of forecast.io.

Closest aviation weather report (METAR) to Qimei Airport

Closest report is Tainan International Airport / Tainan Air Base, 46.3 nm (85.8 km) ESE.

2023/01/28 19:00 (retrieved 23 minutes ago)

RCNN 281900Z 01006KT 9999 FEW012 SCT050 09/01 Q1020 RMK A3013

Closest aviation forecast (TAF) to Qimei Airport

Closest forecast is Tainan International Airport / Tainan Air Base, 46.3 nm (85.8 km) ESE.

2023/01/28 18:21 (retrieved 1 hour ago)

TAF RCNN 281700Z 2818/2918 01010KT 9999 FEW012 BKN060 TX19/2905Z TN08/2820Z BECMG 2820/2823 01004KT BECMG 2901/2904 35008KT FEW012 SCT060 BECMG 2908/2911 FEW012 BKN050 BECMG 2914/2917 02004KT FEW012 SCT060